createdAt,value
2018-01-05T13:29:48.578Z,4.33
2018-01-05T13:32:16.514Z,4.67
2018-01-05T13:34:44.196Z,3.83
2018-01-05T13:37:11.762Z,4.27
2018-01-05T13:39:39.307Z,5.40
2018-01-05T13:42:06.874Z,4.63
2018-01-05T13:44:34.411Z,6.70
2018-01-05T13:47:02.100Z,9.40
2018-01-05T13:49:29.663Z,7.20
2018-01-05T13:51:57.286Z,7.70
2018-01-05T13:54:24.858Z,5.57
2018-01-05T13:56:52.482Z,4.53
2018-01-05T13:59:20.158Z,4.67
2018-01-05T14:01:47.774Z,4.90
2018-01-05T14:04:15.334Z,6.07
2018-01-05T14:06:42.905Z,3.93
2018-01-05T14:09:10.527Z,3.97
2018-01-05T14:11:38.203Z,4.80
2018-01-05T14:14:05.812Z,8.20
2018-01-05T14:16:33.466Z,9.17
2018-01-05T14:19:01.038Z,5.33
2018-01-05T14:21:28.594Z,4.30
2018-01-05T14:23:56.273Z,6.33
2018-01-05T14:26:23.908Z,5.20
2018-01-05T14:28:51.483Z,5.73
2018-01-05T14:31:19.051Z,5.23
2018-01-05T14:33:46.678Z,6.27
2018-01-05T14:36:14.294Z,5.33
2018-01-05T14:38:41.854Z,6.67
2018-01-05T14:41:09.414Z,7.73
2018-01-05T14:43:36.986Z,21.17
2018-01-05T14:46:04.541Z,19.20
2018-01-05T14:48:32.162Z,21.17
2018-01-05T14:50:59.734Z,20.43
2018-01-05T14:53:27.370Z,20.00
2018-01-05T14:55:54.956Z,29.47
2018-01-05T14:58:22.523Z,38.23
2018-01-05T15:00:50.156Z,38.67
2018-01-05T15:03:17.719Z,27.00
2018-01-05T15:05:45.361Z,25.17
2018-01-05T15:08:12.991Z,22.07
2018-01-05T15:10:40.559Z,26.00
2018-01-05T15:13:08.239Z,32.17
2018-01-05T15:15:35.841Z,27.60
2018-01-05T15:18:03.414Z,30.87
2018-01-05T15:20:31.060Z,34.33
2018-01-05T15:22:58.649Z,40.90
2018-01-05T15:25:26.275Z,62.73
2018-01-05T15:27:53.910Z,74.83
2018-01-05T15:30:21.489Z,71.87
2018-01-05T15:32:49.048Z,86.47
2018-01-05T15:35:16.679Z,88.97
2018-01-05T15:37:44.397Z,90.57
2018-01-05T15:40:11.975Z,136.50
2018-01-05T15:42:39.554Z,110.23
2018-01-05T15:45:07.137Z,102.03
2018-01-05T15:47:34.717Z,101.70
2018-01-05T15:50:02.348Z,110.60
2018-01-05T15:52:30.017Z,114.50
2018-01-05T15:54:57.594Z,116.37
2018-01-05T15:57:25.186Z,114.60
2018-01-05T15:59:52.754Z,90.57
2018-01-05T16:02:20.386Z,93.32
2018-01-05T16:04:48.011Z,98.00
2018-01-05T16:07:15.582Z,90.37
2018-01-05T16:09:43.231Z,105.50
2018-01-05T16:12:10.861Z,139.43
2018-01-05T16:14:38.486Z,139.00
2018-01-05T16:17:06.119Z,144.20
2018-01-05T16:19:33.696Z,130.60
2018-01-05T16:22:01.302Z,134.83
2018-01-05T16:24:28.884Z,133.77
2018-01-05T16:26:56.520Z,116.13
2018-01-05T16:29:24.166Z,118.17
2018-01-05T16:31:51.742Z,136.47
